sensor_id;sensor_type;location;lat;lon;timestamp;P1;durP1;ratioP1;P2;durP2;ratioP2
6436;SDS011;3251;53.550;9.918;2024-02-21T06:44:47;9.57;;;6.27;;
6436;SDS011;3251;53.550;9.918;2024-02-21T06:47:13;7.07;;;6.17;;
6436;SDS011;3251;53.550;9.918;2024-02-21T06:49:39;8.97;;;6.90;;
6436;SDS011;3251;53.550;9.918;2024-02-21T06:52:06;5.90;;;5.30;;
6436;SDS011;3251;53.550;9.918;2024-02-21T06:54:32;7.73;;;7.00;;
6436;SDS011;3251;53.550;9.918;2024-02-21T06:56:58;9.10;;;6.57;;
6436;SDS011;3251;53.550;9.918;2024-02-21T06:59:24;11.73;;;6.37;;
6436;SDS011;3251;53.550;9.918;2024-02-21T07:01:53;13.43;;;6.30;;
6436;SDS011;3251;53.550;9.918;2024-02-21T07:04:22;6.47;;;5.60;;
6436;SDS011;3251;53.550;9.918;2024-02-21T07:06:49;7.50;;;6.10;;
6436;SDS011;3251;53.550;9.918;2024-02-21T07:09:15;8.60;;;6.13;;
6436;SDS011;3251;53.550;9.918;2024-02-21T07:11:41;9.87;;;8.33;;
6436;SDS011;3251;53.550;9.918;2024-02-21T07:14:07;9.47;;;5.97;;
6436;SDS011;3251;53.550;9.918;2024-02-21T07:16:33;9.23;;;7.87;;
6436;SDS011;3251;53.550;9.918;2024-02-21T07:18:59;8.63;;;5.97;;
6436;SDS011;3251;53.550;9.918;2024-02-21T07:21:26;7.60;;;6.70;;
6436;SDS011;3251;53.550;9.918;2024-02-21T07:23:52;9.13;;;6.10;;
6436;SDS011;3251;53.550;9.918;2024-02-21T07:26:18;11.00;;;7.00;;
6436;SDS011;3251;53.550;9.918;2024-02-21T07:28:44;10.93;;;7.53;;
6436;SDS011;3251;53.550;9.918;2024-02-21T07:31:11;10.70;;;7.13;;
6436;SDS011;3251;53.550;9.918;2024-02-21T07:33:37;12.10;;;6.93;;
6436;SDS011;3251;53.550;9.918;2024-02-21T07:36:10;11.20;;;8.03;;
6436;SDS011;3251;53.550;9.918;2024-02-21T07:38:36;12.77;;;8.23;;
6436;SDS011;3251;53.550;9.918;2024-02-21T07:41:03;10.90;;;7.20;;
6436;SDS011;3251;53.550;9.918;2024-02-21T07:43:29;12.97;;;7.17;;
6436;SDS011;3251;53.550;9.918;2024-02-21T07:45:55;8.60;;;6.70;;
6436;SDS011;3251;53.550;9.918;2024-02-21T07:48:21;12.10;;;7.60;;
6436;SDS011;3251;53.550;9.918;2024-02-21T07:50:52;13.27;;;6.30;;
6436;SDS011;3251;53.550;9.918;2024-02-21T07:53:19;8.37;;;5.77;;
6436;SDS011;3251;53.550;9.918;2024-02-21T07:55:46;11.90;;;6.80;;
6436;SDS011;3251;53.550;9.918;2024-02-21T07:58:12;8.50;;;7.00;;
6436;SDS011;3251;53.550;9.918;2024-02-21T08:00:38;7.53;;;5.00;;
6436;SDS011;3251;53.550;9.918;2024-02-21T08:03:04;7.90;;;6.43;;
6436;SDS011;3251;53.550;9.918;2024-02-21T08:05:33;6.70;;;5.40;;
6436;SDS011;3251;53.550;9.918;2024-02-21T08:07:59;10.00;;;4.40;;
6436;SDS011;3251;53.550;9.918;2024-02-21T08:10:25;14.97;;;5.70;;
6436;SDS011;3251;53.550;9.918;2024-02-21T08:12:52;5.17;;;4.50;;
6436;SDS011;3251;53.550;9.918;2024-02-21T08:15:18;8.40;;;4.67;;
6436;SDS011;3251;53.550;9.918;2024-02-21T08:17:44;5.43;;;4.20;;
6436;SDS011;3251;53.550;9.918;2024-02-21T08:20:10;5.07;;;4.00;;
6436;SDS011;3251;53.550;9.918;2024-02-21T08:22:39;11.40;;;4.70;;
6436;SDS011;3251;53.550;9.918;2024-02-21T08:25:05;9.57;;;3.17;;
6436;SDS011;3251;53.550;9.918;2024-02-21T08:27:31;5.93;;;2.80;;
6436;SDS011;3251;53.550;9.918;2024-02-21T08:29:57;7.80;;;4.37;;
6436;SDS011;3251;53.550;9.918;2024-02-21T08:32:24;22.23;;;4.90;;
6436;SDS011;3251;53.550;9.918;2024-02-21T08:34:50;12.03;;;3.63;;
6436;SDS011;3251;53.550;9.918;2024-02-21T08:37:16;14.67;;;4.10;;
6436;SDS011;3251;53.550;9.918;2024-02-21T08:39:42;13.90;;;3.77;;
6436;SDS011;3251;53.550;9.918;2024-02-21T08:42:08;8.27;;;3.90;;
6436;SDS011;3251;53.550;9.918;2024-02-21T08:44:34;12.20;;;4.33;;
6436;SDS011;3251;53.550;9.918;2024-02-21T08:47:00;5.93;;;2.57;;
6436;SDS011;3251;53.550;9.918;2024-02-21T08:49:28;10.70;;;3.30;;
6436;SDS011;3251;53.550;9.918;2024-02-21T08:51:55;10.77;;;3.43;;
6436;SDS011;3251;53.550;9.918;2024-02-21T08:54:21;24.87;;;3.53;;
6436;SDS011;3251;53.550;9.918;2024-02-21T08:56:47;14.13;;;3.10;;
6436;SDS011;3251;53.550;9.918;2024-02-21T08:59:13;5.63;;;2.60;;
6436;SDS011;3251;53.550;9.918;2024-02-21T09:01:40;18.17;;;3.30;;
6436;SDS011;3251;53.550;9.918;2024-02-21T09:04:06;4.07;;;2.47;;
6436;SDS011;3251;53.550;9.918;2024-02-21T09:06:32;5.60;;;2.27;;
6436;SDS011;3251;53.550;9.918;2024-02-21T09:09:01;8.53;;;2.60;;
6436;SDS011;3251;53.550;9.918;2024-02-21T09:11:27;11.33;;;2.60;;
6436;SDS011;3251;53.550;9.918;2024-02-21T09:13:53;22.97;;;3.33;;
6436;SDS011;3251;53.550;9.918;2024-02-21T09:16:20;13.70;;;3.50;;
6436;SDS011;3251;53.550;9.918;2024-02-21T09:18:46;16.80;;;4.77;;
6436;SDS011;3251;53.550;9.918;2024-02-21T09:21:12;10.87;;;3.20;;
6436;SDS011;3251;53.550;9.918;2024-02-21T09:23:38;6.50;;;2.93;;
6436;SDS011;3251;53.550;9.918;2024-02-21T09:26:04;12.47;;;2.97;;
6436;SDS011;3251;53.550;9.918;2024-02-21T09:28:30;9.17;;;2.70;;
6436;SDS011;3251;53.550;9.918;2024-02-21T09:30:58;11.40;;;3.37;;
6436;SDS011;3251;53.550;9.918;2024-02-21T09:33:24;7.23;;;2.73;;
6436;SDS011;3251;53.550;9.918;2024-02-21T09:35:50;18.37;;;3.07;;
6436;SDS011;3251;53.550;9.918;2024-02-21T09:38:16;15.37;;;2.73;;
6436;SDS011;3251;53.550;9.918;2024-02-21T09:40:43;15.33;;;2.40;;
6436;SDS011;3251;53.550;9.918;2024-02-21T09:43:09;9.97;;;4.03;;
6436;SDS011;3251;53.550;9.918;2024-02-21T09:45:36;7.50;;;2.03;;
6436;SDS011;3251;53.550;9.918;2024-02-21T09:50:40;13.77;;;2.10;;
6436;SDS011;3251;53.550;9.918;2024-02-21T09:53:06;8.00;;;3.47;;
6436;SDS011;3251;53.550;9.918;2024-02-21T09:55:33;9.40;;;2.20;;
6436;SDS011;3251;53.550;9.918;2024-02-21T09:58:00;12.00;;;3.93;;
6436;SDS011;3251;53.550;9.918;2024-02-21T10:00:28;4.63;;;2.70;;
6436;SDS011;3251;53.550;9.918;2024-02-21T10:02:54;4.37;;;3.20;;
6436;SDS011;3251;53.550;9.918;2024-02-21T10:05:20;19.37;;;5.00;;
6436;SDS011;3251;53.550;9.918;2024-02-21T10:07:48;7.70;;;4.33;;
6436;SDS011;3251;53.550;9.918;2024-02-21T10:10:15;13.43;;;5.60;;
6436;SDS011;3251;53.550;9.918;2024-02-21T10:12:51;7.20;;;5.53;;
6436;SDS011;3251;53.550;9.918;2024-02-21T10:15:23;11.83;;;7.40;;
6436;SDS011;3251;53.550;9.918;2024-02-21T10:17:49;18.53;;;11.50;;
6436;SDS011;3251;53.550;9.918;2024-02-21T10:20:16;16.13;;;11.10;;
6436;SDS011;3251;53.550;9.918;2024-02-21T10:22:42;23.57;;;13.27;;
6436;SDS011;3251;53.550;9.918;2024-02-21T10:25:08;23.57;;;14.40;;
6436;SDS011;3251;53.550;9.918;2024-02-21T10:27:35;25.87;;;14.67;;
6436;SDS011;3251;53.550;9.918;2024-02-21T10:30:01;29.23;;;15.73;;
6436;SDS011;3251;53.550;9.918;2024-02-21T10:32:28;28.70;;;14.03;;
6436;SDS011;3251;53.550;9.918;2024-02-21T10:35:04;26.83;;;16.50;;
6436;SDS011;3251;53.550;9.918;2024-02-21T10:37:31;39.13;;;18.07;;
6436;SDS011;3251;53.550;9.918;2024-02-21T10:39:57;33.20;;;17.27;;
6436;SDS011;3251;53.550;9.918;2024-02-21T10:42:25;42.80;;;19.60;;
6436;SDS011;3251;53.550;9.918;2024-02-21T10:44:53;31.97;;;18.20;;
6436;SDS011;3251;53.550;9.918;2024-02-21T10:47:20;34.27;;;17.37;;
6436;SDS011;3251;53.550;9.918;2024-02-21T10:49:49;41.30;;;20.40;;
6436;SDS011;3251;53.550;9.918;2024-02-21T10:52:26;34.93;;;19.47;;
6436;SDS011;3251;53.550;9.918;2024-02-21T10:55:03;33.17;;;18.50;;
6436;SDS011;3251;53.550;9.918;2024-02-21T10:57:31;28.83;;;16.13;;
6436;SDS011;3251;53.550;9.918;2024-02-21T10:59:58;36.53;;;18.70;;
6436;SDS011;3251;53.550;9.918;2024-02-21T11:02:25;40.33;;;19.87;;
6436;SDS011;3251;53.550;9.918;2024-02-21T11:04:51;34.77;;;19.70;;
6436;SDS011;3251;53.550;9.918;2024-02-21T11:07:19;33.33;;;17.80;;
6436;SDS011;3251;53.550;9.918;2024-02-21T11:09:51;39.50;;;16.90;;
6436;SDS011;3251;53.550;9.918;2024-02-21T11:12:21;31.20;;;15.83;;
6436;SDS011;3251;53.550;9.918;2024-02-21T11:14:47;41.13;;;16.57;;
6436;SDS011;3251;53.550;9.918;2024-02-21T11:17:17;34.27;;;15.83;;
6436;SDS011;3251;53.550;9.918;2024-02-21T11:19:43;34.27;;;15.63;;
6436;SDS011;3251;53.550;9.918;2024-02-21T11:22:17;27.97;;;14.30;;
6436;SDS011;3251;53.550;9.918;2024-02-21T11:24:43;30.20;;;15.60;;
6436;SDS011;3251;53.550;9.918;2024-02-21T11:27:13;32.10;;;14.90;;
6436;SDS011;3251;53.550;9.918;2024-02-21T11:29:49;24.80;;;14.00;;
6436;SDS011;3251;53.550;9.918;2024-02-21T11:32:19;31.67;;;13.50;;
6436;SDS011;3251;53.550;9.918;2024-02-21T11:35:03;28.07;;;13.97;;
6436;SDS011;3251;53.550;9.918;2024-02-21T11:37:33;28.17;;;13.13;;
6436;SDS011;3251;53.550;9.918;2024-02-21T11:40:02;25.40;;;12.03;;
6436;SDS011;3251;53.550;9.918;2024-02-21T11:42:28;24.43;;;11.90;;
6436;SDS011;3251;53.550;9.918;2024-02-21T11:44:59;26.33;;;12.67;;
6436;SDS011;3251;53.550;9.918;2024-02-21T11:47:25;17.80;;;11.63;;
6436;SDS011;3251;53.550;9.918;2024-02-21T11:49:51;24.07;;;12.13;;
6436;SDS011;3251;53.550;9.918;2024-02-21T11:52:20;25.73;;;12.40;;
6436;SDS011;3251;53.550;9.918;2024-02-21T11:54:47;21.83;;;12.60;;
6436;SDS011;3251;53.550;9.918;2024-02-21T11:57:14;31.07;;;13.50;;
6436;SDS011;3251;53.550;9.918;2024-02-21T11:59:40;24.10;;;12.70;;
6436;SDS011;3251;53.550;9.918;2024-02-21T12:02:06;23.80;;;11.37;;
6436;SDS011;3251;53.550;9.918;2024-02-21T12:04:33;21.47;;;12.87;;
6436;SDS011;3251;53.550;9.918;2024-02-21T12:07:00;29.80;;;12.90;;
6436;SDS011;3251;53.550;9.918;2024-02-21T12:09:28;26.97;;;11.20;;
6436;SDS011;3251;53.550;9.918;2024-02-21T12:12:02;35.60;;;11.00;;
6436;SDS011;3251;53.550;9.918;2024-02-21T12:14:30;18.73;;;10.33;;
6436;SDS011;3251;53.550;9.918;2024-02-21T12:16:56;18.97;;;11.20;;
6436;SDS011;3251;53.550;9.918;2024-02-21T12:19:22;20.67;;;10.70;;
6436;SDS011;3251;53.550;9.918;2024-02-21T12:21:49;24.00;;;12.20;;
6436;SDS011;3251;53.550;9.918;2024-02-21T12:24:21;24.60;;;14.00;;
6436;SDS011;3251;53.550;9.918;2024-02-21T12:26:48;26.10;;;12.20;;
6436;SDS011;3251;53.550;9.918;2024-02-21T12:29:14;20.33;;;12.77;;
6436;SDS011;3251;53.550;9.918;2024-02-21T12:31:40;20.80;;;12.40;;
6436;SDS011;3251;53.550;9.918;2024-02-21T12:34:06;34.67;;;15.00;;
6436;SDS011;3251;53.550;9.918;2024-02-21T12:36:36;33.53;;;12.33;;
6436;SDS011;3251;53.550;9.918;2024-02-21T12:39:02;26.73;;;14.00;;
6436;SDS011;3251;53.550;9.918;2024-02-21T12:41:29;29.27;;;12.53;;
6436;SDS011;3251;53.550;9.918;2024-02-21T12:43:57;32.97;;;12.50;;
6436;SDS011;3251;53.550;9.918;2024-02-21T12:46:23;27.93;;;13.23;;
6436;SDS011;3251;53.550;9.918;2024-02-21T12:48:50;30.57;;;12.53;;
6436;SDS011;3251;53.550;9.918;2024-02-21T12:51:16;22.37;;;11.77;;
6436;SDS011;3251;53.550;9.918;2024-02-21T12:53:47;41.27;;;14.83;;
6436;SDS011;3251;53.550;9.918;2024-02-21T12:56:15;39.00;;;13.80;;
6436;SDS011;3251;53.550;9.918;2024-02-21T12:58:41;25.87;;;15.27;;
6436;SDS011;3251;53.550;9.918;2024-02-21T13:01:07;37.90;;;13.83;;
6436;SDS011;3251;53.550;9.918;2024-02-21T13:03:33;35.00;;;14.70;;
6436;SDS011;3251;53.550;9.918;2024-02-21T13:05:59;35.77;;;13.07;;
6436;SDS011;3251;53.550;9.918;2024-02-21T13:08:25;26.80;;;13.43;;
6436;SDS011;3251;53.550;9.918;2024-02-21T13:10:51;34.00;;;15.87;;
6436;SDS011;3251;53.550;9.918;2024-02-21T13:13:18;28.73;;;14.60;;
6436;SDS011;3251;53.550;9.918;2024-02-21T13:15:44;37.23;;;14.40;;
6436;SDS011;3251;53.550;9.918;2024-02-21T13:18:10;33.23;;;14.90;;
6436;SDS011;3251;53.550;9.918;2024-02-21T13:20:36;37.40;;;14.23;;
6436;SDS011;3251;53.550;9.918;2024-02-21T13:23:03;34.47;;;14.30;;
6436;SDS011;3251;53.550;9.918;2024-02-21T13:25:29;25.47;;;13.50;;
6436;SDS011;3251;53.550;9.918;2024-02-21T13:27:55;28.97;;;13.60;;
6436;SDS011;3251;53.550;9.918;2024-02-21T13:30:22;24.10;;;13.10;;
6436;SDS011;3251;53.550;9.918;2024-02-21T13:32:48;32.20;;;13.10;;
6436;SDS011;3251;53.550;9.918;2024-02-21T13:35:14;30.43;;;14.33;;
6436;SDS011;3251;53.550;9.918;2024-02-21T13:37:41;28.97;;;14.63;;
6436;SDS011;3251;53.550;9.918;2024-02-21T13:40:07;28.23;;;14.10;;
6436;SDS011;3251;53.550;9.918;2024-02-21T13:42:34;28.60;;;14.70;;
6436;SDS011;3251;53.550;9.918;2024-02-21T13:45:00;28.73;;;14.60;;
6436;SDS011;3251;53.550;9.918;2024-02-21T13:47:27;34.33;;;13.43;;
6436;SDS011;3251;53.550;9.918;2024-02-21T13:49:53;24.30;;;14.07;;
6436;SDS011;3251;53.550;9.918;2024-02-21T13:52:19;31.60;;;14.63;;
6436;SDS011;3251;53.550;9.918;2024-02-21T13:54:46;26.43;;;14.27;;
6436;SDS011;3251;53.550;9.918;2024-02-21T13:57:12;34.33;;;14.60;;
6436;SDS011;3251;53.550;9.918;2024-02-21T13:59:39;28.93;;;13.30;;
6436;SDS011;3251;53.550;9.918;2024-02-21T14:02:07;27.83;;;13.03;;
6436;SDS011;3251;53.550;9.918;2024-02-21T14:04:34;30.40;;;14.27;;
6436;SDS011;3251;53.550;9.918;2024-02-21T14:07:00;39.60;;;14.57;;
6436;SDS011;3251;53.550;9.918;2024-02-21T14:09:26;22.63;;;15.67;;
6436;SDS011;3251;53.550;9.918;2024-02-21T14:11:54;25.10;;;13.37;;
6436;SDS011;3251;53.550;9.918;2024-02-21T14:14:21;31.47;;;13.60;;
6436;SDS011;3251;53.550;9.918;2024-02-21T14:16:47;20.30;;;13.27;;
6436;SDS011;3251;53.550;9.918;2024-02-21T14:19:13;27.00;;;13.30;;
6436;SDS011;3251;53.550;9.918;2024-02-21T14:21:40;21.77;;;11.53;;
6436;SDS011;3251;53.550;9.918;2024-02-21T14:24:06;34.17;;;13.03;;
6436;SDS011;3251;53.550;9.918;2024-02-21T14:26:33;23.40;;;12.63;;
6436;SDS011;3251;53.550;9.918;2024-02-21T14:29:01;23.60;;;10.80;;
6436;SDS011;3251;53.550;9.918;2024-02-21T14:31:28;25.83;;;11.57;;
6436;SDS011;3251;53.550;9.918;2024-02-21T14:33:55;23.33;;;12.10;;
6436;SDS011;3251;53.550;9.918;2024-02-21T14:36:21;25.43;;;11.83;;
6436;SDS011;3251;53.550;9.918;2024-02-21T14:38:49;20.33;;;10.60;;
6436;SDS011;3251;53.550;9.918;2024-02-21T14:41:17;20.97;;;12.33;;
6436;SDS011;3251;53.550;9.918;2024-02-21T14:43:43;24.80;;;11.60;;
6436;SDS011;3251;53.550;9.918;2024-02-21T14:46:09;36.17;;;11.33;;
6436;SDS011;3251;53.550;9.918;2024-02-21T14:48:37;21.40;;;10.93;;
6436;SDS011;3251;53.550;9.918;2024-02-21T14:51:03;19.53;;;10.47;;
6436;SDS011;3251;53.550;9.918;2024-02-21T14:53:29;14.17;;;8.90;;
6436;SDS011;3251;53.550;9.918;2024-02-21T14:55:56;13.23;;;8.97;;
6436;SDS011;3251;53.550;9.918;2024-02-21T14:58:25;18.43;;;9.30;;
6436;SDS011;3251;53.550;9.918;2024-02-21T15:00:52;15.23;;;9.13;;
6436;SDS011;3251;53.550;9.918;2024-02-21T15:03:19;12.13;;;9.60;;
6436;SDS011;3251;53.550;9.918;2024-02-21T15:05:46;17.37;;;8.10;;
6436;SDS011;3251;53.550;9.918;2024-02-21T15:08:12;9.60;;;8.10;;
6436;SDS011;3251;53.550;9.918;2024-02-21T15:10:42;12.90;;;8.60;;
6436;SDS011;3251;53.550;9.918;2024-02-21T15:13:08;35.63;;;10.00;;
6436;SDS011;3251;53.550;9.918;2024-02-21T15:15:34;15.97;;;9.60;;
6436;SDS011;3251;53.550;9.918;2024-02-21T15:18:00;14.53;;;8.17;;
6436;SDS011;3251;53.550;9.918;2024-02-21T15:20:28;9.37;;;7.30;;
6436;SDS011;3251;53.550;9.918;2024-02-21T15:22:54;8.83;;;6.97;;
6436;SDS011;3251;53.550;9.918;2024-02-21T15:25:20;14.27;;;6.93;;
6436;SDS011;3251;53.550;9.918;2024-02-21T15:27:46;16.33;;;7.30;;
6436;SDS011;3251;53.550;9.918;2024-02-21T15:30:13;16.80;;;7.07;;
6436;SDS011;3251;53.550;9.918;2024-02-21T15:32:40;14.70;;;7.00;;
6436;SDS011;3251;53.550;9.918;2024-02-21T15:35:09;16.90;;;8.83;;
6436;SDS011;3251;53.550;9.918;2024-02-21T15:37:35;13.43;;;8.10;;
6436;SDS011;3251;53.550;9.918;2024-02-21T15:40:02;9.20;;;7.47;;
6436;SDS011;3251;53.550;9.918;2024-02-21T15:42:31;12.03;;;7.10;;
6436;SDS011;3251;53.550;9.918;2024-02-21T15:44:57;11.07;;;6.60;;
6436;SDS011;3251;53.550;9.918;2024-02-21T15:47:28;14.00;;;6.37;;
6436;SDS011;3251;53.550;9.918;2024-02-21T15:49:54;12.17;;;6.90;;
6436;SDS011;3251;53.550;9.918;2024-02-21T15:52:20;14.17;;;6.70;;
6436;SDS011;3251;53.550;9.918;2024-02-21T15:54:47;8.53;;;6.60;;
6436;SDS011;3251;53.550;9.918;2024-02-21T15:57:13;6.53;;;5.77;;
6436;SDS011;3251;53.550;9.918;2024-02-21T15:59:39;9.90;;;6.23;;
6436;SDS011;3251;53.550;9.918;2024-02-21T16:02:05;9.17;;;6.50;;
6436;SDS011;3251;53.550;9.918;2024-02-21T16:04:31;18.33;;;7.17;;
6436;SDS011;3251;53.550;9.918;2024-02-21T16:07:01;6.43;;;5.70;;
6436;SDS011;3251;53.550;9.918;2024-02-21T16:09:27;9.90;;;5.93;;
6436;SDS011;3251;53.550;9.918;2024-02-21T16:11:54;9.33;;;5.60;;
6436;SDS011;3251;53.550;9.918;2024-02-21T16:14:20;9.30;;;6.40;;
6436;SDS011;3251;53.550;9.918;2024-02-21T16:16:46;13.63;;;6.47;;
6436;SDS011;3251;53.550;9.918;2024-02-21T16:19:13;9.10;;;7.07;;
6436;SDS011;3251;53.550;9.918;2024-02-21T16:21:40;9.57;;;7.30;;
6436;SDS011;3251;53.550;9.918;2024-02-21T16:24:08;10.70;;;6.93;;
6436;SDS011;3251;53.550;9.918;2024-02-21T16:26:35;10.10;;;6.20;;
6436;SDS011;3251;53.550;9.918;2024-02-21T16:29:02;8.10;;;5.77;;
6436;SDS011;3251;53.550;9.918;2024-02-21T16:31:29;13.83;;;6.00;;
6436;SDS011;3251;53.550;9.918;2024-02-21T16:33:55;8.23;;;5.63;;
6436;SDS011;3251;53.550;9.918;2024-02-21T16:36:21;10.20;;;6.10;;
6436;SDS011;3251;53.550;9.918;2024-02-21T16:38:49;11.07;;;6.20;;
6436;SDS011;3251;53.550;9.918;2024-02-21T16:41:16;11.00;;;6.13;;
6436;SDS011;3251;53.550;9.918;2024-02-21T16:43:42;18.23;;;6.07;;
6436;SDS011;3251;53.550;9.918;2024-02-21T16:49:04;10.03;;;6.60;;
6436;SDS011;3251;53.550;9.918;2024-02-21T16:51:32;14.23;;;6.13;;
6436;SDS011;3251;53.550;9.918;2024-02-21T16:53:58;17.13;;;5.63;;
6436;SDS011;3251;53.550;9.918;2024-02-21T16:56:25;17.37;;;6.73;;
6436;SDS011;3251;53.550;9.918;2024-02-21T16:58:51;9.13;;;5.73;;
6436;SDS011;3251;53.550;9.918;2024-02-21T17:01:18;10.43;;;7.00;;
6436;SDS011;3251;53.550;9.918;2024-02-21T17:03:44;15.57;;;5.63;;
6436;SDS011;3251;53.550;9.918;2024-02-21T17:06:11;11.60;;;5.90;;
6436;SDS011;3251;53.550;9.918;2024-02-21T17:08:38;11.33;;;7.20;;
6436;SDS011;3251;53.550;9.918;2024-02-21T17:11:06;8.70;;;6.07;;
6436;SDS011;3251;53.550;9.918;2024-02-21T17:13:33;10.10;;;6.03;;
6436;SDS011;3251;53.550;9.918;2024-02-21T17:15:59;15.00;;;7.60;;
6436;SDS011;3251;53.550;9.918;2024-02-21T17:18:25;11.10;;;5.77;;
6436;SDS011;3251;53.550;9.918;2024-02-21T17:20:52;13.00;;;5.70;;
6436;SDS011;3251;53.550;9.918;2024-02-21T17:23:18;12.63;;;6.10;;
6436;SDS011;3251;53.550;9.918;2024-02-21T17:25:44;13.53;;;5.57;;
6436;SDS011;3251;53.550;9.918;2024-02-21T17:28:10;11.77;;;5.70;;
6436;SDS011;3251;53.550;9.918;2024-02-21T17:30:36;10.60;;;6.67;;
6436;SDS011;3251;53.550;9.918;2024-02-21T17:33:06;26.33;;;6.93;;
6436;SDS011;3251;53.550;9.918;2024-02-21T17:35:32;12.70;;;6.87;;
6436;SDS011;3251;53.550;9.918;2024-02-21T17:38:00;14.27;;;6.90;;
6436;SDS011;3251;53.550;9.918;2024-02-21T17:40:27;6.23;;;5.33;;
6436;SDS011;3251;53.550;9.918;2024-02-21T17:42:53;14.10;;;6.80;;
6436;SDS011;3251;53.550;9.918;2024-02-21T17:45:19;14.73;;;6.47;;
6436;SDS011;3251;53.550;9.918;2024-02-21T17:47:45;12.00;;;6.80;;
6436;SDS011;3251;53.550;9.918;2024-02-21T17:50:13;14.97;;;6.00;;
6436;SDS011;3251;53.550;9.918;2024-02-21T17:52:40;11.30;;;6.60;;
6436;SDS011;3251;53.550;9.918;2024-02-21T17:55:06;15.83;;;7.47;;
6436;SDS011;3251;53.550;9.918;2024-02-21T17:57:32;17.30;;;7.57;;
6436;SDS011;3251;53.550;9.918;2024-02-21T17:59:59;14.43;;;8.30;;
6436;SDS011;3251;53.550;9.918;2024-02-21T18:02:27;8.10;;;6.00;;
6436;SDS011;3251;53.550;9.918;2024-02-21T18:04:53;22.00;;;6.13;;
6436;SDS011;3251;53.550;9.918;2024-02-21T18:07:20;20.93;;;6.70;;
6436;SDS011;3251;53.550;9.918;2024-02-21T18:09:46;11.03;;;6.30;;
6436;SDS011;3251;53.550;9.918;2024-02-21T18:12:15;17.63;;;6.23;;
6436;SDS011;3251;53.550;9.918;2024-02-21T18:14:41;13.07;;;6.83;;
6436;SDS011;3251;53.550;9.918;2024-02-21T18:17:07;9.80;;;6.40;;
6436;SDS011;3251;53.550;9.918;2024-02-21T18:19:34;14.17;;;6.97;;
6436;SDS011;3251;53.550;9.918;2024-02-21T18:22:00;19.57;;;6.77;;
6436;SDS011;3251;53.550;9.918;2024-02-21T18:24:26;11.87;;;5.70;;
6436;SDS011;3251;53.550;9.918;2024-02-21T18:26:52;18.33;;;7.80;;
6436;SDS011;3251;53.550;9.918;2024-02-21T18:29:19;32.13;;;13.13;;
6436;SDS011;3251;53.550;9.918;2024-02-21T18:31:45;18.90;;;9.37;;
6436;SDS011;3251;53.550;9.918;2024-02-21T18:34:11;14.80;;;5.83;;
6436;SDS011;3251;53.550;9.918;2024-02-21T18:36:38;16.17;;;5.57;;
6436;SDS011;3251;53.550;9.918;2024-02-21T18:39:06;10.67;;;6.57;;
6436;SDS011;3251;53.550;9.918;2024-02-21T18:41:32;24.03;;;10.60;;
6436;SDS011;3251;53.550;9.918;2024-02-21T18:43:58;18.67;;;11.00;;
6436;SDS011;3251;53.550;9.918;2024-02-21T18:46:25;19.83;;;10.47;;
6436;SDS011;3251;53.550;9.918;2024-02-21T18:48:51;13.63;;;6.60;;
6436;SDS011;3251;53.550;9.918;2024-02-21T18:51:19;9.27;;;6.63;;
6436;SDS011;3251;53.550;9.918;2024-02-21T18:53:45;16.93;;;8.63;;
6436;SDS011;3251;53.550;9.918;2024-02-21T18:56:11;18.67;;;7.03;;
6436;SDS011;3251;53.550;9.918;2024-02-21T18:58:41;18.80;;;5.93;;
6436;SDS011;3251;53.550;9.918;2024-02-21T19:01:07;19.67;;;7.83;;
6436;SDS011;3251;53.550;9.918;2024-02-21T19:03:33;22.60;;;9.13;;
6436;SDS011;3251;53.550;9.918;2024-02-21T19:05:59;14.20;;;7.50;;
6436;SDS011;3251;53.550;9.918;2024-02-21T19:08:25;17.30;;;6.13;;
6436;SDS011;3251;53.550;9.918;2024-02-21T19:10:51;13.20;;;6.43;;
6436;SDS011;3251;53.550;9.918;2024-02-21T19:13:18;18.67;;;5.40;;
6436;SDS011;3251;53.550;9.918;2024-02-21T19:15:46;11.47;;;5.83;;
6436;SDS011;3251;53.550;9.918;2024-02-21T19:18:13;10.67;;;4.47;;
6436;SDS011;3251;53.550;9.918;2024-02-21T19:20:39;16.63;;;6.57;;
6436;SDS011;3251;53.550;9.918;2024-02-21T19:23:05;7.97;;;4.27;;
6436;SDS011;3251;53.550;9.918;2024-02-21T19:25:33;8.57;;;5.73;;
6436;SDS011;3251;53.550;9.918;2024-02-21T19:27:59;20.83;;;5.77;;
6436;SDS011;3251;53.550;9.918;2024-02-21T19:30:25;15.97;;;4.60;;
6436;SDS011;3251;53.550;9.918;2024-02-21T19:32:53;12.37;;;3.73;;
6436;SDS011;3251;53.550;9.918;2024-02-21T19:35:19;8.70;;;4.10;;
6436;SDS011;3251;53.550;9.918;2024-02-21T19:37:45;12.60;;;4.57;;
6436;SDS011;3251;53.550;9.918;2024-02-21T19:40:11;12.17;;;4.70;;
6436;SDS011;3251;53.550;9.918;2024-02-21T19:42:38;7.87;;;3.47;;
6436;SDS011;3251;53.550;9.918;2024-02-21T19:45:05;7.27;;;2.47;;
6436;SDS011;3251;53.550;9.918;2024-02-21T19:47:31;10.23;;;3.13;;
6436;SDS011;3251;53.550;9.918;2024-02-21T19:49:57;6.10;;;3.40;;
6436;SDS011;3251;53.550;9.918;2024-02-21T19:52:25;5.10;;;3.37;;
6436;SDS011;3251;53.550;9.918;2024-02-21T19:54:51;7.53;;;3.10;;
6436;SDS011;3251;53.550;9.918;2024-02-21T19:57:19;21.00;;;3.70;;
6436;SDS011;3251;53.550;9.918;2024-02-21T19:59:47;11.37;;;5.10;;
6436;SDS011;3251;53.550;9.918;2024-02-21T20:02:13;10.13;;;3.57;;
6436;SDS011;3251;53.550;9.918;2024-02-21T20:04:40;12.37;;;4.30;;
6436;SDS011;3251;53.550;9.918;2024-02-21T20:07:06;13.03;;;6.60;;
6436;SDS011;3251;53.550;9.918;2024-02-21T20:09:32;9.53;;;4.70;;
6436;SDS011;3251;53.550;9.918;2024-02-21T20:11:58;10.97;;;4.60;;
6436;SDS011;3251;53.550;9.918;2024-02-21T20:14:26;8.90;;;3.70;;
6436;SDS011;3251;53.550;9.918;2024-02-21T20:16:52;13.60;;;3.77;;
6436;SDS011;3251;53.550;9.918;2024-02-21T20:19:18;12.90;;;3.33;;
6436;SDS011;3251;53.550;9.918;2024-02-21T20:21:44;3.43;;;3.10;;
6436;SDS011;3251;53.550;9.918;2024-02-21T20:24:11;8.37;;;3.90;;
6436;SDS011;3251;53.550;9.918;2024-02-21T20:26:37;4.97;;;2.87;;
6436;SDS011;3251;53.550;9.918;2024-02-21T20:29:09;14.73;;;3.93;;
6436;SDS011;3251;53.550;9.918;2024-02-21T20:31:39;7.53;;;3.90;;
6436;SDS011;3251;53.550;9.918;2024-02-21T20:34:07;7.23;;;2.33;;
6436;SDS011;3251;53.550;9.918;2024-02-21T20:36:33;11.17;;;3.33;;
6436;SDS011;3251;53.550;9.918;2024-02-21T20:38:59;5.23;;;3.10;;
6436;SDS011;3251;53.550;9.918;2024-02-21T20:41:25;12.83;;;4.10;;
6436;SDS011;3251;53.550;9.918;2024-02-21T20:43:51;17.10;;;4.57;;
6436;SDS011;3251;53.550;9.918;2024-02-21T20:46:18;15.10;;;4.00;;
6436;SDS011;3251;53.550;9.918;2024-02-21T20:48:44;3.63;;;3.43;;
6436;SDS011;3251;53.550;9.918;2024-02-21T20:51:10;7.90;;;2.80;;
6436;SDS011;3251;53.550;9.918;2024-02-21T20:53:36;11.33;;;2.97;;
6436;SDS011;3251;53.550;9.918;2024-02-21T20:56:03;4.63;;;2.37;;
6436;SDS011;3251;53.550;9.918;2024-02-21T20:58:31;7.57;;;3.53;;
6436;SDS011;3251;53.550;9.918;2024-02-21T21:00:57;6.47;;;1.90;;
6436;SDS011;3251;53.550;9.918;2024-02-21T21:03:25;11.47;;;4.70;;
6436;SDS011;3251;53.550;9.918;2024-02-21T21:05:51;7.13;;;2.87;;
6436;SDS011;3251;53.550;9.918;2024-02-21T21:08:17;4.57;;;2.97;;
6436;SDS011;3251;53.550;9.918;2024-02-21T21:10:43;11.73;;;3.90;;
6436;SDS011;3251;53.550;9.918;2024-02-21T21:13:09;5.73;;;3.20;;
6436;SDS011;3251;53.550;9.918;2024-02-21T21:15:36;9.60;;;3.33;;
6436;SDS011;3251;53.550;9.918;2024-02-21T21:18:03;10.47;;;3.93;;
6436;SDS011;3251;53.550;9.918;2024-02-21T21:20:29;4.83;;;3.80;;
6436;SDS011;3251;53.550;9.918;2024-02-21T21:22:56;7.53;;;4.03;;
6436;SDS011;3251;53.550;9.918;2024-02-21T21:25:23;17.00;;;4.00;;
6436;SDS011;3251;53.550;9.918;2024-02-21T21:27:49;15.87;;;5.53;;
6436;SDS011;3251;53.550;9.918;2024-02-21T21:30:16;17.10;;;6.33;;
6436;SDS011;3251;53.550;9.918;2024-02-21T21:32:42;15.60;;;4.50;;
6436;SDS011;3251;53.550;9.918;2024-02-21T21:35:08;10.80;;;4.77;;
6436;SDS011;3251;53.550;9.918;2024-02-21T21:37:35;6.00;;;3.50;;
6436;SDS011;3251;53.550;9.918;2024-02-21T21:40:02;16.90;;;3.77;;
6436;SDS011;3251;53.550;9.918;2024-02-21T21:42:29;9.80;;;3.10;;
6436;SDS011;3251;53.550;9.918;2024-02-21T21:44:55;16.47;;;3.37;;
6436;SDS011;3251;53.550;9.918;2024-02-21T21:47:21;9.37;;;3.47;;